createdAt,value
2018-08-10T00:00:31.026Z,90.15
2018-08-10T00:01:31.017Z,90.44
2018-08-10T00:02:31.008Z,90.63
2018-08-10T00:03:31.002Z,90.34
2018-08-10T00:04:31.000Z,89.86
2018-08-10T00:05:30.989Z,90.34
2018-08-10T00:06:30.983Z,90.15
2018-08-10T00:07:30.975Z,90.24
2018-08-10T00:08:30.970Z,89.76
2018-08-10T00:09:30.963Z,89.95
2018-08-10T00:10:30.957Z,89.29
2018-08-10T00:11:30.950Z,89.29
2018-08-10T00:12:30.944Z,89.67
2018-08-10T00:13:30.937Z,89.48
2018-08-10T00:14:30.931Z,89.29
2018-08-10T00:15:30.924Z,89.58
2018-08-10T00:16:30.917Z,89.58
2018-08-10T00:17:30.911Z,90.05
2018-08-10T00:18:30.904Z,89.67
2018-08-10T00:19:30.897Z,89.67
2018-08-10T00:20:30.891Z,89.86
2018-08-10T00:21:30.884Z,89.81
2018-08-10T00:22:30.878Z,89.62
2018-08-10T00:23:30.871Z,89.81
2018-08-10T00:24:30.864Z,89.62
2018-08-10T00:25:30.857Z,89.91
2018-08-10T00:26:30.851Z,90.30
2018-08-10T00:27:30.843Z,89.72
2018-08-10T00:28:30.837Z,90.20
2018-08-10T00:29:30.830Z,89.62
2018-08-10T00:30:30.824Z,90.58
2018-08-10T00:31:30.817Z,90.48
2018-08-10T00:32:30.809Z,90.48
2018-08-10T00:33:30.803Z,90.10
2018-08-10T00:34:30.796Z,90.96
2018-08-10T00:35:30.789Z,91.06
2018-08-10T00:36:30.783Z,90.96
2018-08-10T00:37:30.776Z,91.35
2018-08-10T00:38:30.769Z,90.77
2018-08-10T00:39:30.762Z,90.67
2018-08-10T00:40:30.757Z,90.58
2018-08-10T00:41:30.749Z,90.01
2018-08-10T00:42:30.742Z,90.20
2018-08-10T00:43:30.735Z,90.20
2018-08-10T00:44:30.727Z,90.67
2018-08-10T00:45:30.721Z,90.87
2018-08-10T00:46:30.714Z,90.48
2018-08-10T00:47:30.713Z,91.25
2018-08-10T00:48:30.703Z,90.77
2018-08-10T00:49:30.693Z,91.16
2018-08-10T00:50:30.686Z,91.06
2018-08-10T00:51:30.681Z,90.96
2018-08-10T00:52:30.676Z,91.16
2018-08-10T00:53:30.666Z,90.77
2018-08-10T00:54:30.659Z,91.06
2018-08-10T00:55:30.651Z,91.16
2018-08-10T00:56:30.644Z,90.87
2018-08-10T00:57:30.637Z,90.20
2018-08-10T00:58:30.631Z,90.48
2018-08-10T00:59:30.623Z,90.30
2018-08-10T01:00:30.616Z,90.30
2018-08-10T01:01:30.610Z,89.72
2018-08-10T01:02:30.603Z,90.39
2018-08-10T01:03:30.595Z,90.39
2018-08-10T01:04:30.589Z,90.10
2018-08-10T01:05:30.582Z,89.62
2018-08-10T01:06:30.575Z,89.62
2018-08-10T01:07:30.571Z,89.62
2018-08-10T01:08:30.564Z,89.91
2018-08-10T01:09:30.557Z,89.34
2018-08-10T01:10:30.548Z,89.53
2018-08-10T01:11:30.540Z,89.24
2018-08-10T01:12:30.532Z,89.81
2018-08-10T01:13:30.625Z,89.15
2018-08-10T01:14:30.520Z,89.15
2018-08-10T01:15:30.513Z,89.53
2018-08-10T01:16:30.505Z,89.53
2018-08-10T01:17:30.498Z,89.72
2018-08-10T01:18:30.492Z,89.62
2018-08-10T01:19:30.643Z,89.81
2018-08-10T01:20:30.477Z,89.62
2018-08-10T01:21:30.470Z,89.62
2018-08-10T01:22:30.464Z,89.62
2018-08-10T01:23:30.455Z,89.91
2018-08-10T01:24:30.449Z,90.20
2018-08-10T01:25:30.442Z,90.48
2018-08-10T01:26:30.436Z,90.10
2018-08-10T01:27:30.428Z,90.39
2018-08-10T01:28:30.491Z,89.62
2018-08-10T01:29:30.415Z,89.72
2018-08-10T01:30:30.409Z,89.62
2018-08-10T01:31:30.400Z,90.10
2018-08-10T01:32:30.393Z,89.43
2018-08-10T01:33:30.386Z,89.62
2018-08-10T01:34:30.380Z,89.43
2018-08-10T01:35:30.374Z,89.62
2018-08-10T01:36:30.371Z,89.62
2018-08-10T01:37:30.358Z,90.10
2018-08-10T01:38:30.352Z,89.62
2018-08-10T01:39:30.346Z,89.72
2018-08-10T01:40:30.338Z,89.62
2018-08-10T01:41:30.331Z,89.43
2018-08-10T01:42:30.324Z,89.58
2018-08-10T01:43:30.317Z,89.53
2018-08-10T01:44:30.310Z,89.91
2018-08-10T01:45:30.303Z,89.72
2018-08-10T01:46:30.296Z,89.39
2018-08-10T01:47:30.289Z,89.20
2018-08-10T01:48:30.282Z,89.53
2018-08-10T01:49:30.277Z,89.72
2018-08-10T01:50:30.270Z,89.72
2018-08-10T01:51:30.261Z,89.81
2018-08-10T01:52:30.254Z,89.62
2018-08-10T01:53:30.250Z,89.29
2018-08-10T01:54:30.241Z,88.95
2018-08-10T01:55:30.233Z,89.34
2018-08-10T01:56:30.226Z,88.95
2018-08-10T01:57:30.219Z,89.24
2018-08-10T01:58:30.213Z,88.48
2018-08-10T01:59:30.205Z,88.38
2018-08-10T02:00:30.199Z,88.57
2018-08-10T02:01:30.192Z,89.20
2018-08-10T02:02:30.185Z,89.20
2018-08-10T02:03:30.179Z,89.10
2018-08-10T02:04:30.171Z,89.29
2018-08-10T02:05:30.164Z,89.34
2018-08-10T02:06:30.157Z,89.67
2018-08-10T02:07:30.149Z,89.20
2018-08-10T02:08:30.143Z,89.29
2018-08-10T02:09:30.136Z,89.29
2018-08-10T02:10:30.129Z,89.20
2018-08-10T02:11:30.121Z,89.10
2018-08-10T02:12:30.117Z,89.29
2018-08-10T02:13:30.107Z,88.91
2018-08-10T02:14:30.101Z,89.01
2018-08-10T02:15:30.094Z,89.20
2018-08-10T02:16:30.087Z,89.77
2018-08-10T02:17:30.083Z,89.48
2018-08-10T02:18:30.074Z,89.67
2018-08-10T02:19:30.065Z,89.48
2018-08-10T02:20:30.059Z,89.67
2018-08-10T02:21:30.054Z,89.87
2018-08-10T02:22:30.046Z,89.58
2018-08-10T02:23:30.038Z,90.06
2018-08-10T02:24:30.031Z,90.25
2018-08-10T02:25:30.025Z,89.96
2018-08-10T02:26:30.018Z,89.77
2018-08-10T02:27:30.010Z,90.44
2018-08-10T02:28:30.003Z,91.02
2018-08-10T02:29:29.996Z,90.63
2018-08-10T02:30:29.989Z,90.73
2018-08-10T02:31:29.982Z,91.11
2018-08-10T02:32:29.977Z,91.02
2018-08-10T02:33:29.968Z,90.73
2018-08-10T02:34:29.962Z,91.11
2018-08-10T02:35:29.954Z,91.20
2018-08-10T02:36:29.947Z,91.11
2018-08-10T02:37:29.940Z,90.82
2018-08-10T02:38:29.933Z,91.02
2018-08-10T02:39:29.925Z,91.39
2018-08-10T02:40:29.926Z,91.30
2018-08-10T02:41:29.912Z,90.92
2018-08-10T02:42:29.905Z,91.30
2018-08-10T02:43:29.897Z,91.49
2018-08-10T02:44:29.890Z,91.39
2018-08-10T02:45:29.883Z,91.11
2018-08-10T02:46:29.877Z,91.49
2018-08-10T02:47:29.868Z,91.49
2018-08-10T02:48:29.861Z,91.78
2018-08-10T02:49:29.854Z,91.78
2018-08-10T02:50:29.848Z,91.68
2018-08-10T02:51:29.839Z,91.54
2018-08-10T02:52:29.832Z,91.74
2018-08-10T02:53:29.829Z,91.74
2018-08-10T02:54:29.818Z,91.83
2018-08-10T02:55:29.810Z,91.74
2018-08-10T02:56:29.803Z,92.02
2018-08-10T02:57:29.797Z,91.68
2018-08-10T02:58:29.789Z,92.45
2018-08-10T02:59:29.781Z,91.93
2018-08-10T03:00:29.779Z,92.30
2018-08-10T03:01:29.768Z,92.25
2018-08-10T03:02:29.761Z,92.11
2018-08-10T03:03:29.753Z,92.88
2018-08-10T03:04:29.746Z,92.79
2018-08-10T03:05:29.739Z,92.79
2018-08-10T03:06:29.732Z,92.02
2018-08-10T03:07:29.724Z,92.50
2018-08-10T03:08:29.717Z,92.16
2018-08-10T03:09:29.711Z,92.59
2018-08-10T03:10:29.704Z,92.02
2018-08-10T03:11:29.695Z,92.59
2018-08-10T03:12:29.688Z,91.97
2018-08-10T03:13:29.681Z,92.21
2018-08-10T03:14:29.674Z,92.69
2018-08-10T03:15:29.667Z,92.69
2018-08-10T03:16:29.659Z,92.69
2018-08-10T03:17:29.653Z,93.36
2018-08-10T03:18:29.645Z,93.36
2018-08-10T03:19:29.637Z,92.88
2018-08-10T03:20:29.630Z,93.74
2018-08-10T03:21:29.623Z,94.02
2018-08-10T03:22:29.616Z,93.55
2018-08-10T03:23:29.608Z,94.41
2018-08-10T03:24:29.601Z,94.41
2018-08-10T03:25:29.597Z,94.79
2018-08-10T03:26:29.589Z,93.74
2018-08-10T03:27:29.579Z,94.31
2018-08-10T03:28:29.572Z,94.31
2018-08-10T03:29:29.567Z,94.70
2018-08-10T03:30:29.559Z,94.60
2018-08-10T03:31:29.549Z,94.70
2018-08-10T03:32:29.542Z,94.89
2018-08-10T03:33:29.540Z,94.79
2018-08-10T03:34:29.528Z,94.79
2018-08-10T03:35:29.521Z,94.51
2018-08-10T03:36:29.513Z,94.60
2018-08-10T03:37:29.506Z,94.89
2018-08-10T03:38:29.500Z,94.79
2018-08-10T03:39:29.490Z,94.79
2018-08-10T03:40:29.483Z,94.60
2018-08-10T03:41:29.476Z,94.60
2018-08-10T03:42:29.469Z,94.51
2018-08-10T03:43:29.462Z,94.98
2018-08-10T03:44:29.453Z,94.60
2018-08-10T03:45:29.447Z,94.70
2018-08-10T03:46:29.441Z,94.98
2018-08-10T03:47:29.432Z,94.74
2018-08-10T03:48:29.424Z,95.07
2018-08-10T03:49:29.417Z,94.70
2018-08-10T03:50:29.410Z,94.79
2018-08-10T03:51:29.402Z,94.74
2018-08-10T03:52:29.394Z,94.60
2018-08-10T03:53:29.388Z,94.60
2018-08-10T03:54:29.381Z,94.70
2018-08-10T03:55:29.373Z,95.12
2018-08-10T03:56:29.366Z,94.89
2018-08-10T03:57:29.358Z,94.84
2018-08-10T03:58:29.351Z,95.07
2018-08-10T03:59:29.343Z,94.79
2018-08-10T04:00:29.336Z,93.74
2018-08-10T04:01:29.330Z,94.31
2018-08-10T04:02:29.321Z,94.51
2018-08-10T04:03:29.315Z,94.51
2018-08-10T04:04:29.307Z,94.79
2018-08-10T04:05:29.301Z,94.22
2018-08-10T04:06:29.294Z,93.88
2018-08-10T04:07:29.287Z,93.40
2018-08-10T04:08:29.278Z,93.40
2018-08-10T04:09:29.271Z,93.12
2018-08-10T04:10:29.264Z,92.93
2018-08-10T04:11:29.256Z,92.35
2018-08-10T04:12:29.250Z,92.74
2018-08-10T04:13:29.242Z,92.54
2018-08-10T04:14:29.235Z,92.74
2018-08-10T04:15:29.228Z,92.25
2018-08-10T04:16:29.221Z,92.64
2018-08-10T04:17:29.214Z,92.64
2018-08-10T04:18:29.206Z,92.45
2018-08-10T04:19:29.199Z,92.54
2018-08-10T04:20:29.191Z,92.64
2018-08-10T04:21:29.184Z,92.25
2018-08-10T04:22:29.178Z,92.45
2018-08-10T04:23:29.170Z,92.35
2018-08-10T04:24:29.163Z,92.64
2018-08-10T04:25:29.156Z,92.45
2018-08-10T04:26:29.149Z,92.45
2018-08-10T04:27:29.141Z,92.54
2018-08-10T04:28:29.134Z,92.16
2018-08-10T04:29:29.167Z,92.16
2018-08-10T04:30:29.120Z,92.45
2018-08-10T04:31:29.112Z,92.83
2018-08-10T04:32:29.105Z,92.83
2018-08-10T04:33:29.100Z,92.25
2018-08-10T04:34:29.091Z,92.54
2018-08-10T04:35:29.083Z,92.64
2018-08-10T04:36:29.076Z,92.83
2018-08-10T04:37:29.068Z,92.83
2018-08-10T04:38:29.084Z,92.54
2018-08-10T04:39:29.078Z,92.35
2018-08-10T04:40:29.047Z,92.35
2018-08-10T04:41:29.040Z,92.64
2018-08-10T04:42:29.037Z,92.54
2018-08-10T04:43:29.028Z,92.45
2018-08-10T04:44:29.021Z,92.64
2018-08-10T04:45:29.012Z,92.54
2018-08-10T04:46:29.004Z,92.25
2018-08-10T04:47:28.997Z,92.64
2018-08-10T04:48:28.991Z,92.54
2018-08-10T04:49:28.983Z,92.74
2018-08-10T04:50:28.976Z,92.64
2018-08-10T04:51:28.967Z,92.16
2018-08-10T04:52:28.961Z,92.54
2018-08-10T04:53:28.954Z,92.16
2018-08-10T04:54:28.947Z,92.45
2018-08-10T04:55:29.029Z,92.35
2018-08-10T04:56:28.932Z,92.35
2018-08-10T04:57:28.924Z,92.45
2018-08-10T04:58:28.918Z,91.68
2018-08-10T04:59:28.916Z,92.35
2018-08-10T05:00:28.903Z,91.97
2018-08-10T05:01:28.896Z,91.88
2018-08-10T05:02:28.889Z,91.97
2018-08-10T05:03:28.881Z,91.88
2018-08-10T05:04:28.875Z,91.49
2018-08-10T05:05:28.868Z,91.49
2018-08-10T05:06:28.861Z,91.30
2018-08-10T05:07:28.853Z,91.30
2018-08-10T05:08:28.846Z,91.49
2018-08-10T05:09:28.839Z,91.30
2018-08-10T05:10:28.833Z,91.11
2018-08-10T05:11:28.825Z,91.30
2018-08-10T05:12:28.817Z,91.06
2018-08-10T05:13:28.810Z,90.82
2018-08-10T05:14:28.805Z,90.58
2018-08-10T05:15:28.796Z,90.67
2018-08-10T05:16:28.789Z,90.48
2018-08-10T05:17:28.785Z,90.87
2018-08-10T05:18:28.779Z,90.20
2018-08-10T05:19:28.768Z,89.72
2018-08-10T05:20:28.760Z,90.20
2018-08-10T05:21:28.754Z,90.10
2018-08-10T05:22:28.748Z,89.62
2018-08-10T05:23:28.741Z,89.34
2018-08-10T05:24:28.733Z,88.95
2018-08-10T05:25:28.727Z,88.48
2018-08-10T05:26:28.721Z,88.52
2018-08-10T05:27:28.713Z,88.62
2018-08-10T05:28:28.706Z,89.48
2018-08-10T05:29:28.700Z,88.71
2018-08-10T05:30:28.694Z,88.04
2018-08-10T05:31:28.686Z,88.52
2018-08-10T05:32:28.679Z,88.23
2018-08-10T05:33:28.673Z,87.85
2018-08-10T05:34:28.666Z,87.76
2018-08-10T05:35:28.661Z,88.04
2018-08-10T05:36:28.653Z,88.23
2018-08-10T05:37:28.646Z,88.04
2018-08-10T05:38:28.639Z,87.37
2018-08-10T05:39:28.632Z,86.90
2018-08-10T05:40:28.626Z,87.37
2018-08-10T05:41:28.619Z,87.37
2018-08-10T05:42:28.613Z,86.99
2018-08-10T05:43:28.605Z,86.99
2018-08-10T05:44:28.599Z,86.80
2018-08-10T05:45:28.594Z,86.90
2018-08-10T05:46:28.687Z,86.90
2018-08-10T05:47:28.580Z,86.70
2018-08-10T05:48:28.573Z,86.70
2018-08-10T05:49:28.567Z,87.08
2018-08-10T05:50:28.566Z,86.61
2018-08-10T05:51:28.552Z,86.90
2018-08-10T05:52:28.596Z,87.08
2018-08-10T05:53:28.541Z,86.32
2018-08-10T05:54:28.533Z,86.32
2018-08-10T05:55:28.525Z,86.51
2018-08-10T05:56:28.519Z,86.80
2018-08-10T05:57:28.620Z,86.41
2018-08-10T05:58:28.506Z,86.51
2018-08-10T05:59:28.500Z,85.94
2018-08-10T06:00:28.493Z,85.84
2018-08-10T06:01:28.489Z,86.04
2018-08-10T06:02:28.480Z,85.65
2018-08-10T06:03:28.663Z,85.75
2018-08-10T06:04:28.470Z,86.32
2018-08-10T06:05:28.461Z,85.88
2018-08-10T06:06:28.455Z,86.08
2018-08-10T06:07:28.447Z,85.60
2018-08-10T06:08:28.441Z,85.69
2018-08-10T06:09:28.435Z,85.50
2018-08-10T06:10:28.429Z,85.50
2018-08-10T06:11:28.420Z,85.50
2018-08-10T06:12:28.415Z,85.12
2018-08-10T06:13:28.409Z,85.31
2018-08-10T06:14:28.402Z,85.21
2018-08-10T06:15:28.467Z,85.02
2018-08-10T06:16:28.391Z,84.92
2018-08-10T06:17:28.384Z,85.60
2018-08-10T06:18:28.377Z,84.83
2018-08-10T06:19:28.426Z,84.92
2018-08-10T06:20:28.365Z,84.64
2018-08-10T06:21:28.365Z,85.02
2018-08-10T06:22:28.358Z,84.78
2018-08-10T06:23:28.345Z,84.35
2018-08-10T06:24:28.339Z,84.26
2018-08-10T06:25:28.334Z,84.74
2018-08-10T06:26:28.330Z,84.83
2018-08-10T06:27:28.321Z,84.74
2018-08-10T06:28:28.316Z,84.64
2018-08-10T06:29:28.310Z,84.83
2018-08-10T06:30:28.304Z,84.74
2018-08-10T06:31:28.297Z,84.58
2018-08-10T06:32:28.290Z,84.16
2018-08-10T06:33:28.284Z,84.26
2018-08-10T06:34:28.278Z,84.49
2018-08-10T06:35:28.272Z,84.68
2018-08-10T06:36:28.266Z,84.39
2018-08-10T06:37:28.260Z,84.01
2018-08-10T06:38:28.255Z,83.72
2018-08-10T06:39:28.247Z,83.92
2018-08-10T06:40:28.242Z,83.53
2018-08-10T06:41:28.236Z,83.53
2018-08-10T06:42:28.230Z,83.82
2018-08-10T06:43:28.224Z,83.82
2018-08-10T06:44:28.218Z,83.53
2018-08-10T06:45:28.213Z,83.15
2018-08-10T06:46:28.207Z,83.09
2018-08-10T06:47:28.202Z,82.71
2018-08-10T06:48:28.197Z,82.19
2018-08-10T06:49:28.189Z,82.76
2018-08-10T06:50:28.184Z,83.09
2018-08-10T06:51:28.177Z,82.42
2018-08-10T06:52:28.173Z,82.32
2018-08-10T06:53:28.167Z,81.95
2018-08-10T06:54:28.162Z,81.66
2018-08-10T06:55:28.155Z,81.85
2018-08-10T06:56:28.150Z,81.56
2018-08-10T06:57:28.145Z,81.90
2018-08-10T06:58:28.140Z,81.62
2018-08-10T06:59:28.133Z,81.71
2018-08-10T07:00:28.138Z,81.90
2018-08-10T07:01:28.132Z,81.75
2018-08-10T07:02:28.118Z,82.23
2018-08-10T07:03:28.112Z,82.14
2018-08-10T07:04:28.107Z,81.22
2018-08-10T07:05:28.147Z,80.26
2018-08-10T07:06:28.097Z,80.41
2018-08-10T07:07:28.123Z,80.79
2018-08-10T07:08:28.087Z,79.30
2018-08-10T07:09:28.083Z,80.64
2018-08-10T07:10:28.078Z,79.78
2018-08-10T07:11:28.073Z,79.30
2018-08-10T07:12:28.070Z,79.49
2018-08-10T07:13:28.128Z,78.34
2018-08-10T07:14:28.060Z,78.92
2018-08-10T07:15:28.060Z,78.92
2018-08-10T07:16:28.053Z,79.01
2018-08-10T07:17:28.047Z,78.15
2018-08-10T07:18:28.044Z,78.53
2018-08-10T07:19:28.039Z,78.05
2018-08-10T07:20:28.037Z,77.76
2018-08-10T07:21:28.035Z,78.72
2018-08-10T07:22:28.031Z,78.05
2018-08-10T07:23:28.028Z,77.95
2018-08-10T07:24:28.032Z,78.77
2018-08-10T07:25:28.024Z,77.90
2018-08-10T07:26:28.023Z,77.33
2018-08-10T07:27:28.023Z,76.21
2018-08-10T07:28:28.023Z,76.46
2018-08-10T07:29:28.022Z,76.56
2018-08-10T07:30:28.021Z,76.75
2018-08-10T07:31:28.019Z,76.37
2018-08-10T07:32:28.019Z,76.88
2018-08-10T07:33:28.019Z,77.08
2018-08-10T07:34:28.020Z,76.69
2018-08-10T07:35:28.019Z,75.57
2018-08-10T07:36:28.021Z,74.52
2018-08-10T07:37:28.024Z,73.85
2018-08-10T07:38:28.026Z,74.04
2018-08-10T07:39:28.025Z,74.19
2018-08-10T07:40:28.025Z,74.01
2018-08-10T07:41:28.027Z,74.71
2018-08-10T07:42:28.030Z,73.94
2018-08-10T07:43:28.030Z,72.89
2018-08-10T07:44:28.032Z,73.46
2018-08-10T07:45:28.035Z,73.85
2018-08-10T07:46:28.066Z,73.27
2018-08-10T07:47:28.038Z,73.37
2018-08-10T07:48:28.045Z,73.46
2018-08-10T07:49:28.044Z,72.12
2018-08-10T07:50:28.047Z,72.50
2018-08-10T07:51:28.049Z,72.22
2018-08-10T07:52:28.052Z,72.64
2018-08-10T07:53:28.055Z,71.29
2018-08-10T07:54:28.058Z,71.00
2018-08-10T07:55:28.062Z,70.68
2018-08-10T07:56:28.064Z,71.39
2018-08-10T07:57:28.068Z,71.39
2018-08-10T07:58:28.071Z,70.75
2018-08-10T07:59:28.074Z,69.31
2018-08-10T08:00:28.079Z,69.40
2018-08-10T08:01:28.083Z,69.79
2018-08-10T08:02:28.088Z,69.31
2018-08-10T08:03:28.092Z,69.98
2018-08-10T08:04:28.098Z,68.89
2018-08-10T08:05:28.099Z,68.41
2018-08-10T08:06:28.102Z,68.51
2018-08-10T08:07:28.104Z,69.14
2018-08-10T08:08:28.107Z,69.53
2018-08-10T08:09:28.109Z,70.01
2018-08-10T08:10:28.115Z,69.91
2018-08-10T08:11:28.112Z,70.87
2018-08-10T08:12:28.114Z,71.00
2018-08-10T08:13:28.116Z,69.02
2018-08-10T08:14:28.120Z,69.27
2018-08-10T08:15:28.121Z,69.02
2018-08-10T08:16:28.123Z,68.83
2018-08-10T08:17:28.126Z,67.58
2018-08-10T08:18:28.130Z,67.64
2018-08-10T08:19:28.174Z,68.31
2018-08-10T08:20:28.135Z,69.14
2018-08-10T08:21:28.138Z,69.66
2018-08-10T08:22:28.139Z,68.98
2018-08-10T08:23:28.141Z,68.21
2018-08-10T08:24:28.143Z,69.34
2018-08-10T08:25:28.144Z,69.05
2018-08-10T08:26:28.146Z,69.18
2018-08-10T08:27:28.147Z,69.08
2018-08-10T08:28:28.149Z,68.06
2018-08-10T08:29:28.150Z,68.35
2018-08-10T08:30:28.153Z,67.86
2018-08-10T08:31:28.154Z,67.19
2018-08-10T08:32:28.157Z,67.77
2018-08-10T08:33:28.195Z,65.50
2018-08-10T08:34:28.161Z,64.82
2018-08-10T08:35:28.163Z,65.50
2018-08-10T08:36:28.166Z,65.72
2018-08-10T08:37:28.169Z,64.02
2018-08-10T08:38:28.271Z,62.09
2018-08-10T08:39:28.179Z,63.70
2018-08-10T08:40:28.182Z,63.06
2018-08-10T08:41:28.187Z,63.34
2018-08-10T08:42:28.192Z,62.90
2018-08-10T08:43:28.198Z,62.03
2018-08-10T08:44:28.203Z,60.61
2018-08-10T08:45:28.311Z,60.03
2018-08-10T08:46:28.361Z,59.07
2018-08-10T08:47:28.223Z,58.75
2018-08-10T08:48:28.229Z,60.00
2018-08-10T08:49:28.237Z,59.72
2018-08-10T08:50:28.244Z,60.17
2018-08-10T08:51:28.260Z,60.68
2018-08-10T08:52:28.264Z,60.23
2018-08-10T08:53:28.266Z,59.00
2018-08-10T08:54:28.273Z,57.94
2018-08-10T08:55:28.281Z,58.14
2018-08-10T08:56:28.288Z,59.20
2018-08-10T08:57:28.297Z,58.04
2018-08-10T08:58:28.305Z,58.62
2018-08-10T08:59:28.312Z,58.52
2018-08-10T09:00:28.319Z,56.88
2018-08-10T09:01:28.328Z,57.68
2018-08-10T09:02:28.336Z,56.91
2018-08-10T09:03:28.343Z,57.01
2018-08-10T09:04:28.352Z,55.56
2018-08-10T09:05:28.360Z,56.14
2018-08-10T09:06:28.368Z,56.04
2018-08-10T09:07:28.572Z,55.94
2018-08-10T09:08:28.383Z,57.37
2018-08-10T09:09:28.390Z,57.17
2018-08-10T09:10:28.397Z,57.34
2018-08-10T09:11:28.402Z,58.47
2018-08-10T09:12:28.407Z,60.27
2018-08-10T09:13:28.413Z,60.65
2018-08-10T09:14:28.479Z,60.65
2018-08-10T09:15:28.421Z,59.23
2018-08-10T09:16:28.427Z,58.30
2018-08-10T09:17:28.457Z,56.49
2018-08-10T09:18:28.438Z,54.86
2018-08-10T09:19:28.445Z,54.06
2018-08-10T09:20:28.450Z,54.13
2018-08-10T09:21:28.457Z,54.80
2018-08-10T09:22:28.465Z,54.22
2018-08-10T09:23:28.494Z,53.77
2018-08-10T09:24:28.479Z,54.93
2018-08-10T09:25:28.485Z,53.48
2018-08-10T09:26:28.571Z,53.87
2018-08-10T09:27:28.500Z,54.16
2018-08-10T09:28:28.511Z,54.66
2018-08-10T09:29:28.517Z,53.51
2018-08-10T09:30:28.524Z,54.02
2018-08-10T09:31:28.536Z,51.05
2018-08-10T09:32:28.542Z,51.25
2018-08-10T09:33:28.550Z,51.03
2018-08-10T09:34:28.638Z,52.28
2018-08-10T09:35:28.566Z,52.95
2018-08-10T09:36:28.577Z,52.76
2018-08-10T09:37:28.588Z,52.79
2018-08-10T09:38:28.645Z,51.44
2018-08-10T09:39:28.602Z,50.45
2018-08-10T09:40:28.612Z,50.45
2018-08-10T09:41:28.621Z,50.32
2018-08-10T09:42:28.629Z,51.94
2018-08-10T09:43:28.636Z,53.00
2018-08-10T09:44:28.644Z,52.16
2018-08-10T09:45:28.731Z,51.87
2018-08-10T09:46:28.660Z,52.37
2018-08-10T09:47:28.666Z,52.89
2018-08-10T09:48:28.678Z,49.05
2018-08-10T09:50:28.691Z,47.07
2018-08-10T09:51:28.699Z,47.45
2018-08-10T09:52:28.708Z,48.23
2018-08-10T09:53:28.717Z,49.22
2018-08-10T09:54:28.725Z,47.19
2018-08-10T09:55:28.734Z,47.09
2018-08-10T09:56:28.743Z,48.25
2018-08-10T09:57:28.751Z,47.87
2018-08-10T09:58:28.760Z,48.61
2018-08-10T09:59:28.767Z,49.37
2018-08-10T10:00:28.776Z,51.10
2018-08-10T10:01:28.783Z,50.93
2018-08-10T10:02:28.791Z,50.40
2018-08-10T10:03:28.799Z,47.24
2018-08-10T10:04:28.809Z,47.12
2018-08-10T10:05:28.816Z,46.34
2018-08-10T10:06:28.825Z,46.78
2018-08-10T10:07:28.831Z,47.82
2018-08-10T10:08:28.840Z,49.65
2018-08-10T10:09:28.845Z,50.06
2018-08-10T10:10:28.852Z,47.85
2018-08-10T10:11:28.858Z,49.55
2018-08-10T10:12:28.865Z,49.75
2018-08-10T10:13:28.872Z,49.63
2018-08-10T10:14:28.878Z,49.46
2018-08-10T10:15:28.884Z,49.24
2018-08-10T10:16:28.890Z,49.17
2018-08-10T10:17:29.025Z,49.10
2018-08-10T10:18:28.904Z,48.16
2018-08-10T10:19:28.908Z,46.25
2018-08-10T10:20:28.915Z,45.38
2018-08-10T10:21:28.923Z,45.67
2018-08-10T10:22:28.930Z,46.15
2018-08-10T10:23:28.936Z,46.44
2018-08-10T10:24:28.945Z,47.05
2018-08-10T10:25:28.954Z,45.50
2018-08-10T10:26:28.961Z,44.15
2018-08-10T10:27:28.968Z,45.00
2018-08-10T10:28:28.975Z,46.03
2018-08-10T10:29:28.981Z,46.03
2018-08-10T10:30:28.988Z,44.76
2018-08-10T10:31:28.993Z,46.20
2018-08-10T10:32:29.001Z,46.49
2018-08-10T10:33:29.006Z,46.59
2018-08-10T10:34:29.013Z,47.00
2018-08-10T10:35:29.021Z,46.51
2018-08-10T10:36:29.026Z,45.65
2018-08-10T10:37:29.035Z,44.90
2018-08-10T10:38:29.044Z,43.93
2018-08-10T10:39:29.049Z,43.72
2018-08-10T10:40:29.057Z,44.20
2018-08-10T10:41:29.103Z,45.34
2018-08-10T10:42:29.072Z,46.59
2018-08-10T10:43:29.080Z,45.75
2018-08-10T10:44:29.084Z,45.45
2018-08-10T10:45:29.091Z,44.87
2018-08-10T10:46:29.098Z,43.35
2018-08-10T10:47:29.208Z,43.52
2018-08-10T10:48:29.111Z,45.26
2018-08-10T10:49:29.122Z,45.57
2018-08-10T10:50:29.127Z,44.70
2018-08-10T10:51:29.133Z,44.05
2018-08-10T10:52:29.140Z,43.78
2018-08-10T10:53:29.149Z,42.79
2018-08-10T10:54:29.157Z,44.56
2018-08-10T10:55:29.271Z,42.07
2018-08-10T10:56:29.230Z,41.54
2018-08-10T10:57:29.182Z,43.57
2018-08-10T10:58:29.196Z,42.97
2018-08-10T10:59:29.203Z,42.85
2018-08-10T11:00:29.211Z,44.97
2018-08-10T11:01:29.258Z,45.07
2018-08-10T11:02:29.222Z,45.26
2018-08-10T11:03:29.227Z,44.22
2018-08-10T11:04:29.234Z,44.10
2018-08-10T11:05:29.240Z,43.14
2018-08-10T11:06:29.343Z,44.66
2018-08-10T11:07:29.257Z,44.64
2018-08-10T11:08:29.254Z,44.62
2018-08-10T11:09:29.258Z,46.04
2018-08-10T11:10:29.261Z,47.58
2018-08-10T11:11:29.263Z,47.87
2018-08-10T11:12:29.267Z,47.29
2018-08-10T11:13:29.269Z,47.67
2018-08-10T11:14:29.270Z,47.87
2018-08-10T11:15:29.572Z,47.53
2018-08-10T11:16:29.274Z,45.92
2018-08-10T11:17:29.277Z,44.95
2018-08-10T11:18:29.282Z,45.17
2018-08-10T11:19:29.283Z,43.93
2018-08-10T11:20:29.387Z,42.89
2018-08-10T11:21:29.292Z,42.60
2018-08-10T11:22:29.297Z,42.39
2018-08-10T11:23:29.301Z,43.24
2018-08-10T11:24:29.304Z,42.94
2018-08-10T11:25:29.439Z,43.93
2018-08-10T11:26:29.311Z,44.10
2018-08-10T11:27:29.315Z,45.17
2018-08-10T11:28:29.321Z,44.59
2018-08-10T11:29:29.322Z,44.68
2018-08-10T11:30:29.328Z,43.43
2018-08-10T11:31:29.328Z,43.98
2018-08-10T11:32:29.334Z,45.14
2018-08-10T11:33:29.333Z,45.92
2018-08-10T11:34:29.335Z,44.95
2018-08-10T11:35:29.337Z,44.83
2018-08-10T11:36:29.339Z,45.31
2018-08-10T11:37:29.341Z,45.12
2018-08-10T11:38:29.344Z,44.97
2018-08-10T11:39:29.349Z,44.68
2018-08-10T11:40:29.349Z,44.10
2018-08-10T11:41:29.403Z,45.26
2018-08-10T11:42:29.355Z,43.62
2018-08-10T11:43:29.357Z,43.91
2018-08-10T11:44:29.360Z,43.70
2018-08-10T11:45:29.364Z,44.56
2018-08-10T11:46:29.365Z,45.03
2018-08-10T11:47:29.369Z,46.18
2018-08-10T11:48:29.367Z,45.89
2018-08-10T11:49:29.371Z,46.18
2018-08-10T11:50:29.370Z,46.35
2018-08-10T11:51:29.374Z,46.83
2018-08-10T11:52:29.450Z,47.22
2018-08-10T11:53:29.372Z,47.12
2018-08-10T11:54:29.372Z,47.03
2018-08-10T11:55:29.371Z,47.87
2018-08-10T11:56:29.373Z,47.60
2018-08-10T11:57:29.429Z,48.06
2018-08-10T11:58:29.373Z,48.28
2018-08-10T11:59:29.369Z,47.97
2018-08-10T12:00:29.368Z,46.91
2018-08-10T12:01:29.369Z,48.28
2018-08-10T12:02:29.369Z,47.70
2018-08-10T12:03:29.367Z,47.14
2018-08-10T12:04:29.366Z,46.18
2018-08-10T12:05:29.366Z,47.53
2018-08-10T12:06:29.372Z,47.38
2018-08-10T12:07:29.365Z,43.81
2018-08-10T12:08:29.366Z,43.62
2018-08-10T12:09:29.366Z,44.59
2018-08-10T12:10:29.367Z,42.87
2018-08-10T12:11:29.367Z,42.58
2018-08-10T12:12:29.404Z,42.60
2018-08-10T12:13:29.372Z,41.75
2018-08-10T12:14:29.374Z,41.09
2018-08-10T12:15:29.380Z,40.53
2018-08-10T12:16:29.382Z,39.01
2018-08-10T12:17:29.387Z,39.03
2018-08-10T12:18:29.392Z,36.90
2018-08-10T12:19:29.397Z,36.40
2018-08-10T12:20:29.404Z,37.81
2018-08-10T12:21:29.410Z,38.48
2018-08-10T12:22:29.416Z,38.76
2018-08-10T12:23:29.418Z,39.14
2018-08-10T12:24:29.426Z,39.20
2018-08-10T12:25:29.428Z,40.32
2018-08-10T12:26:29.432Z,42.23
2018-08-10T12:27:29.434Z,43.19
2018-08-10T12:28:29.437Z,43.00
2018-08-10T12:29:29.439Z,42.23
2018-08-10T12:30:29.442Z,42.03
2018-08-10T12:31:29.444Z,41.36
2018-08-10T12:32:29.443Z,41.36
2018-08-10T12:33:29.450Z,41.77
2018-08-10T12:34:29.446Z,41.02
2018-08-10T12:35:29.446Z,40.92
2018-08-10T12:36:29.448Z,40.92
2018-08-10T12:37:29.449Z,41.03
2018-08-10T12:38:29.452Z,40.11
2018-08-10T12:39:29.453Z,40.23
2018-08-10T12:40:29.456Z,38.04
2018-08-10T12:41:29.460Z,36.80
2018-08-10T12:42:29.463Z,36.33
2018-08-10T12:43:29.467Z,35.36
2018-08-10T12:44:29.472Z,35.17
2018-08-10T12:45:29.477Z,35.66
2018-08-10T12:46:29.495Z,33.80
2018-08-10T12:47:29.488Z,36.33
2018-08-10T12:48:29.494Z,35.85
2018-08-10T12:49:29.503Z,35.88
2018-08-10T12:50:29.531Z,34.06
2018-08-10T12:51:29.512Z,33.64
2018-08-10T12:52:29.518Z,34.89
2018-08-10T12:53:29.525Z,34.02